Time,TemperatureF,DewpointF,PressureIn,WindDirection,WindDirectionDegrees,WindSpeedMPH,WindSpeedGustMPH,Humidity,HourlyPrecipIn,Conditions,Clouds,dailyrainin,SoftwareType,DateUTC
2013-06-14 00:08:00,76.7,37.0,29.68,WSW,246,1.0,9.0,24,0.00,,,0.00,weatherlink.com 1.10,2013-06-14 06:08:00,
2013-06-14 00:23:00,76.4,38.0,29.65,SW,233,0.0,5.0,25,0.00,,,0.00,weatherlink.com 1.10,2013-06-14 06:23:00,
2013-06-14 00:38:00,75.8,38.0,29.66,West,263,0.0,3.0,26,0.00,,,0.00,weatherlink.com 1.10,2013-06-14 06:38:00,
2013-06-14 00:53:00,75.3,38.0,29.66,South,187,0.0,2.0,26,0.00,,,0.00,weatherlink.com 1.10,2013-06-14 06:53:00,
2013-06-14 01:08:00,74.9,38.0,29.66,South,185,0.0,3.0,26,0.00,,,0.00,weatherlink.com 1.10,2013-06-14 07:08:00,
2013-06-14 01:23:00,74.4,37.0,29.65,South,185,0.0,1.0,26,0.00,,,0.00,weatherlink.com 1.10,2013-06-14 07:23:00,
2013-06-14 01:38:00,73.8,38.0,29.65,South,185,0.0,1.0,27,0.00,,,0.00,weatherlink.com 1.10,2013-06-14 07:38:00,
2013-06-14 01:53:00,72.8,40.0,29.64,South,185,0.0,0.0,30,0.00,,,0.00,weatherlink.com 1.10,2013-06-14 07:53:00,
2013-06-14 02:08:00,71.8,38.0,29.63,South,189,0.0,4.0,29,0.00,,,0.00,weatherlink.com 1.10,2013-06-14 08:08:00,
2013-06-14 02:23:00,72.6,38.0,29.63,West,273,0.0,8.0,28,0.00,,,0.00,weatherlink.com 1.10,2013-06-14 08:23:00,
2013-06-14 02:38:00,71.7,39.0,29.63,West,273,0.0,0.0,31,0.00,,,0.00,weatherlink.com 1.10,2013-06-14 08:38:00,
2013-06-14 03:14:00,71.5,37.0,29.63,WSW,238,1.0,6.0,28,0.00,,,0.00,weatherlink.com 1.10,2013-06-14 09:14:00,
2013-06-14 03:23:00,73.2,36.0,29.63,WSW,246,0.0,4.0,26,0.00,,,0.00,weatherlink.com 1.10,2013-06-14 09:23:00,
2013-06-14 03:38:00,74.2,35.0,29.63,WSW,254,0.0,4.0,24,0.00,,,0.00,weatherlink.com 1.10,2013-06-14 09:38:00,
2013-06-14 03:53:00,74.2,35.0,29.64,WNW,285,1.0,4.0,24,0.00,,,0.00,weatherlink.com 1.10,2013-06-14 09:53:00,
2013-06-14 04:08:00,74.0,36.0,29.63,West,262,0.0,4.0,25,0.00,,,0.00,weatherlink.com 1.10,2013-06-14 10:08:00,
2013-06-14 04:23:00,73.2,36.0,29.63,West,259,0.0,1.0,26,0.00,,,0.00,weatherlink.com 1.10,2013-06-14 10:23:00,
2013-06-14 04:38:00,72.4,36.0,29.64,West,259,0.0,1.0,27,0.00,,,0.00,weatherlink.com 1.10,2013-06-14 10:38:00,
2013-06-14 04:53:00,71.5,37.0,29.64,SSW,207,0.0,2.0,28,0.00,,,0.00,weatherlink.com 1.10,2013-06-14 10:53:00,
2013-06-14 05:08:00,70.7,37.0,29.64,SW,223,0.0,1.0,29,0.00,,,0.00,weatherlink.com 1.10,2013-06-14 11:08:00,
2013-06-14 05:23:00,71.0,36.0,29.64,West,267,0.0,3.0,28,0.00,,,0.00,weatherlink.com 1.10,2013-06-14 11:23:00,
2013-06-14 05:38:00,70.9,37.0,29.65,West,262,0.0,1.0,29,0.00,,,0.00,weatherlink.com 1.10,2013-06-14 11:38:00,
2013-06-14 05:53:00,70.6,37.0,29.65,WSW,247,0.0,1.0,29,0.00,,,0.00,weatherlink.com 1.10,2013-06-14 11:53:00,
2013-06-14 06:08:00,70.2,37.0,29.65,West,271,0.0,3.0,30,0.00,,,0.00,weatherlink.com 1.10,2013-06-14 12:08:00,
2013-06-14 06:23:00,70.7,38.0,29.65,West,263,0.0,2.0,30,0.00,,,0.00,weatherlink.com 1.10,2013-06-14 12:23:00,
2013-06-14 06:38:00,71.7,37.0,29.65,West,265,1.0,7.0,28,0.00,,,0.00,weatherlink.com 1.10,2013-06-14 12:38:00,
2013-06-14 06:53:00,72.6,38.0,29.65,WSW,245,1.0,6.0,28,0.00,,,0.00,weatherlink.com 1.10,2013-06-14 12:53:00,
2013-06-14 07:23:00,72.8,39.0,29.65,WSW,256,1.0,2.0,29,0.00,,,0.00,weatherlink.com 1.10,2013-06-14 13:23:00,
2013-06-14 07:38:00,73.2,39.0,29.65,WSW,250,0.0,4.0,29,0.00,,,0.00,weatherlink.com 1.10,2013-06-14 13:38:00,
2013-06-14 07:53:00,73.4,40.0,29.65,WNW,288,1.0,5.0,30,0.00,,,0.00,weatherlink.com 1.10,2013-06-14 13:53:00,
2013-06-14 08:24:00,74.8,40.0,29.64,West,263,0.0,9.0,28,0.00,,,0.00,weatherlink.com 1.10,2013-06-14 14:24:00,
2013-06-14 08:38:00,75.3,39.0,29.64,West,269,1.0,6.0,27,0.00,,,0.00,weatherlink.com 1.10,2013-06-14 14:38:00,
2013-06-14 08:53:00,75.7,40.0,29.64,West,280,0.0,7.0,28,0.00,,,0.00,weatherlink.com 1.10,2013-06-14 14:53:00,
2013-06-14 09:24:00,78.5,41.0,29.64,SSW,206,0.0,2.0,26,0.00,,,0.00,weatherlink.com 1.10,2013-06-14 15:24:00,
2013-06-14 09:39:00,79.6,43.0,29.63,SSE,159,0.0,2.0,27,0.00,,,0.00,weatherlink.com 1.10,2013-06-14 15:39:00,
2013-06-14 09:54:00,80.5,44.0,29.62,SE,146,0.0,2.0,27,0.00,,,0.00,weatherlink.com 1.10,2013-06-14 15:54:00,
2013-06-14 10:09:00,81.8,39.0,29.61,SSE,148,0.0,2.0,22,0.00,,,0.00,weatherlink.com 1.10,2013-06-14 16:09:00,
2013-06-14 10:24:00,83.4,40.0,29.61,SSE,148,0.0,2.0,21,0.00,,,0.00,weatherlink.com 1.10,2013-06-14 16:24:00,
2013-06-14 10:39:00,84.7,38.0,29.61,SSE,148,0.0,2.0,19,0.00,,,0.00,weatherlink.com 1.10,2013-06-14 16:39:00,
2013-06-14 10:54:00,83.4,40.0,29.61,SSE,147,0.0,3.0,21,0.00,,,0.00,weatherlink.com 1.10,2013-06-14 16:54:00,
2013-06-14 11:09:00,83.3,37.0,29.61,SSE,147,0.0,2.0,19,0.00,,,0.00,weatherlink.com 1.10,2013-06-14 17:09:00,
2013-06-14 11:24:00,84.3,35.0,29.61,SSE,147,0.0,2.0,17,0.00,,,0.00,weatherlink.com 1.10,2013-06-14 17:24:00,
2013-06-14 11:39:00,85.6,29.0,29.61,East,80,2.0,5.0,13,0.00,,,0.00,weatherlink.com 1.10,2013-06-14 17:39:00,
2013-06-14 11:54:00,86.6,32.0,29.60,East,96,1.0,3.0,14,0.00,,,0.00,weatherlink.com 1.10,2013-06-14 17:54:00,
2013-06-14 12:24:00,87.2,31.0,29.59,ENE,69,3.0,9.0,13,0.00,,,0.00,weatherlink.com 1.10,2013-06-14 18:24:00,
2013-06-14 12:39:00,88.1,29.0,29.59,NNE,25,2.0,12.0,12,0.00,,,0.00,weatherlink.com 1.10,2013-06-14 18:39:00,
2013-06-14 13:09:00,87.7,29.0,29.57,NNE,32,0.0,5.0,12,0.00,,,0.00,weatherlink.com 1.10,2013-06-14 19:09:00,
2013-06-14 13:24:00,87.0,37.0,29.57,NE,53,5.0,7.0,17,0.00,,,0.00,weatherlink.com 1.10,2013-06-14 19:24:00,
2013-06-14 13:39:00,85.5,43.0,29.56,East,81,1.0,12.0,22,0.00,,,0.00,weatherlink.com 1.10,2013-06-14 19:39:00,
2013-06-14 13:54:00,85.1,41.0,29.55,SE,145,2.0,11.0,21,0.00,,,0.00,weatherlink.com 1.10,2013-06-14 19:54:00,
2013-06-14 14:09:00,85.1,41.0,29.55,East,98,0.0,16.0,21,0.00,,,0.00,weatherlink.com 1.10,2013-06-14 20:09:00,
2013-06-14 14:24:00,85.3,37.0,29.55,NE,36,0.0,9.0,18,0.00,,,0.00,weatherlink.com 1.10,2013-06-14 20:24:00,
2013-06-14 14:39:00,84.8,38.0,29.55,ESE,111,2.0,10.0,19,0.00,,,0.00,weatherlink.com 1.10,2013-06-14 20:39:00,
2013-06-14 14:54:00,83.6,37.0,29.55,East,84,0.0,8.0,19,0.00,,,0.00,weatherlink.com 1.10,2013-06-14 20:54:00,
2013-06-14 15:24:00,83.7,39.0,29.54,SE,128,0.0,7.0,20,0.00,,,0.00,weatherlink.com 1.10,2013-06-14 21:24:00,
2013-06-14 15:39:00,84.6,38.0,29.54,East,90,1.0,7.0,19,0.00,,,0.00,weatherlink.com 1.10,2013-06-14 21:39:00,
2013-06-14 15:54:00,86.3,38.0,29.53,NE,37,3.0,8.0,18,0.00,,,0.00,weatherlink.com 1.10,2013-06-14 21:54:00,
2013-06-14 16:09:00,86.8,37.0,29.53,East,96,5.0,8.0,17,0.00,,,0.00,weatherlink.com 1.10,2013-06-14 22:09:00,
2013-06-14 16:24:00,86.0,36.0,29.53,East,84,2.0,10.0,17,0.00,,,0.00,weatherlink.com 1.10,2013-06-14 22:24:00,
2013-06-14 16:39:00,86.1,36.0,29.53,East,94,6.0,9.0,17,0.00,,,0.00,weatherlink.com 1.10,2013-06-14 22:39:00,
2013-06-14 16:54:00,86.4,38.0,29.52,SE,145,1.0,9.0,18,0.00,,,0.00,weatherlink.com 1.10,2013-06-14 22:54:00,
2013-06-14 17:09:00,84.5,34.0,29.51,SE,135,4.0,7.0,16,0.00,,,0.00,weatherlink.com 1.10,2013-06-14 23:09:00,
2013-06-14 17:25:00,84.5,35.0,29.51,ESE,113,3.0,5.0,17,0.00,,,0.00,weatherlink.com 1.10,2013-06-14 23:25:00,
2013-06-14 17:40:00,84.5,35.0,29.50,SE,135,1.0,3.0,17,0.00,,,0.00,weatherlink.com 1.10,2013-06-14 23:40:00,
2013-06-14 17:55:00,84.1,33.0,29.50,SSE,155,2.0,4.0,16,0.00,,,0.00,weatherlink.com 1.10,2013-06-14 23:55:00,
2013-06-14 18:10:00,83.9,33.0,29.50,SE,144,0.0,3.0,16,0.00,,,0.00,weatherlink.com 1.10,2013-06-15 00:10:00,
2013-06-14 18:25:00,84.0,33.0,29.50,South,177,1.0,5.0,16,0.00,,,0.00,weatherlink.com 1.10,2013-06-15 00:25:00,
2013-06-14 18:40:00,83.6,36.0,29.49,South,172,1.0,5.0,18,0.00,,,0.00,weatherlink.com 1.10,2013-06-15 00:40:00,
2013-06-14 18:55:00,82.6,38.0,29.50,SE,136,5.0,6.0,20,0.00,,,0.00,weatherlink.com 1.10,2013-06-15 00:55:00,
2013-06-14 19:10:00,81.3,37.0,29.52,South,189,2.0,10.0,20,0.00,,,0.00,weatherlink.com 1.10,2013-06-15 01:10:00,
2013-06-14 19:25:00,79.7,36.0,29.53,SSE,150,0.0,10.0,21,0.00,,,0.00,weatherlink.com 1.10,2013-06-15 01:25:00,
2013-06-14 19:40:00,79.1,39.0,29.54,South,169,4.0,10.0,24,0.00,,,0.00,weatherlink.com 1.10,2013-06-15 01:40:00,
2013-06-14 19:55:00,77.0,42.0,29.56,South,186,2.0,9.0,29,0.00,,,0.00,weatherlink.com 1.10,2013-06-15 01:55:00,
2013-06-14 20:25:00,72.5,44.0,29.57,SSE,165,0.0,6.0,36,0.00,,,0.00,weatherlink.com 1.10,2013-06-15 02:25:00,
2013-06-14 20:40:00,71.3,44.0,29.57,SE,133,1.0,5.0,38,0.00,,,0.00,weatherlink.com 1.10,2013-06-15 02:40:00,
2013-06-14 20:55:00,70.4,45.0,29.57,SSE,165,0.0,2.0,40,0.00,,,0.00,weatherlink.com 1.10,2013-06-15 02:55:00,
2013-06-14 21:10:00,69.9,45.0,29.57,SSE,150,0.0,2.0,41,0.00,,,0.00,weatherlink.com 1.10,2013-06-15 03:10:00,
2013-06-14 21:25:00,69.3,45.0,29.57,SE,126,0.0,2.0,42,0.00,,,0.00,weatherlink.com 1.10,2013-06-15 03:25:00,
2013-06-14 21:40:00,68.5,45.0,29.58,SW,215,2.0,2.0,43,0.00,,,0.00,weatherlink.com 1.10,2013-06-15 03:40:00,
2013-06-14 21:55:00,67.5,45.0,29.59,West,279,0.0,2.0,45,0.00,,,0.00,weatherlink.com 1.10,2013-06-15 03:55:00,
2013-06-14 22:10:00,66.6,46.0,29.60,West,279,0.0,0.0,47,0.00,,,0.00,weatherlink.com 1.10,2013-06-15 04:10:00,
2013-06-14 22:25:00,65.9,46.0,29.60,West,279,0.0,0.0,49,0.00,,,0.00,weatherlink.com 1.10,2013-06-15 04:25:00,
2013-06-14 22:40:00,66.5,45.0,29.60,West,279,0.0,1.0,47,0.00,,,0.00,weatherlink.com 1.10,2013-06-15 04:40:00,
2013-06-14 22:55:00,66.1,45.0,29.60,West,275,2.0,4.0,47,0.00,,,0.00,weatherlink.com 1.10,2013-06-15 04:55:00,
2013-06-14 23:10:00,66.1,45.0,29.60,West,277,4.0,5.0,47,0.00,,,0.00,weatherlink.com 1.10,2013-06-15 05:10:00,
2013-06-14 23:25:00,66.0,45.0,29.60,West,277,0.0,3.0,47,0.00,,,0.00,weatherlink.com 1.10,2013-06-15 05:25:00,
2013-06-14 23:40:00,65.7,45.0,29.60,WNW,282,0.0,1.0,47,0.00,,,0.00,weatherlink.com 1.10,2013-06-15 05:40:00,
2013-06-14 23:55:00,65.1,45.0,29.60,WNW,282,0.0,0.0,48,0.00,,,0.00,weatherlink.com 1.10,2013-06-15 05:55:00,